createdAt,value
2023-04-23T00:02:09.347Z,63.10
2023-04-23T00:04:50.154Z,62.62
2023-04-23T00:07:23.169Z,62.59
2023-04-23T00:09:57.475Z,62.64
2023-04-23T00:12:32.997Z,62.74
2023-04-23T00:15:07.329Z,63.32
2023-04-23T00:17:41.333Z,62.69
2023-04-23T00:20:16.650Z,62.60
2023-04-23T00:22:51.529Z,62.76
2023-04-23T00:25:24.342Z,62.59
2023-04-23T00:27:58.359Z,62.61
2023-04-23T00:30:31.082Z,62.69
2023-04-23T00:33:04.234Z,62.27
2023-04-23T00:35:36.968Z,62.51
2023-04-23T00:38:09.666Z,63.17
2023-04-23T00:40:42.487Z,62.96
2023-04-23T00:43:17.597Z,62.70
2023-04-23T00:45:52.729Z,63.32
2023-04-23T00:48:32.845Z,62.83
2023-04-23T00:51:06.355Z,62.65
2023-04-23T00:53:39.214Z,62.61
2023-04-23T00:56:12.464Z,62.63
2023-04-23T00:58:49.052Z,63.29
2023-04-23T01:01:22.003Z,63.08
2023-04-23T01:03:56.741Z,63.03
2023-04-23T01:06:31.652Z,63.16
2023-04-23T01:09:06.116Z,63.37
2023-04-23T01:11:40.561Z,63.19
2023-04-23T01:14:14.541Z,62.69
2023-04-23T01:16:47.743Z,62.25
2023-04-23T01:19:20.812Z,62.27
2023-04-23T01:21:54.690Z,62.21
2023-04-23T01:24:29.059Z,62.46
2023-04-23T01:27:02.527Z,62.38
2023-04-23T01:29:35.537Z,62.33
2023-04-23T01:32:08.771Z,62.09
2023-04-23T01:34:44.394Z,62.44
2023-04-23T01:37:17.533Z,62.50
2023-04-23T01:39:52.635Z,62.44
2023-04-23T01:42:25.178Z,62.40
2023-04-23T01:44:59.503Z,62.71
2023-04-23T01:47:32.257Z,62.76
2023-04-23T01:50:05.234Z,63.03
2023-04-23T01:52:37.975Z,63.17
2023-04-23T01:55:11.938Z,63.03
2023-04-23T01:57:44.558Z,63.24
2023-04-23T02:00:17.569Z,63.51
2023-04-23T02:02:51.610Z,63.36
2023-04-23T02:05:25.277Z,63.23
2023-04-23T02:07:58.170Z,63.15
2023-04-23T02:10:32.315Z,63.25
2023-04-23T02:13:04.973Z,63.32
2023-04-23T02:15:38.256Z,63.74
2023-04-23T02:18:14.201Z,63.40
2023-04-23T02:24:08.014Z,63.68
2023-04-23T02:26:56.172Z,63.40
2023-04-23T02:29:38.453Z,64.02
2023-04-23T02:32:17.772Z,64.12
2023-04-23T02:34:55.502Z,63.80
2023-04-23T02:37:31.160Z,64.05
2023-04-23T02:40:07.045Z,63.83
2023-04-23T02:42:44.124Z,63.69
2023-04-23T02:45:20.998Z,64.07
2023-04-23T02:47:56.582Z,63.77
2023-04-23T02:50:29.450Z,63.81
2023-04-23T02:53:04.123Z,64.10
2023-04-23T02:55:36.989Z,64.23
2023-04-23T02:58:11.028Z,64.47
2023-04-23T03:00:46.021Z,63.99
2023-04-23T03:03:18.882Z,64.08
2023-04-23T03:05:51.499Z,64.00
2023-04-23T03:08:24.086Z,64.23
2023-04-23T03:10:56.797Z,64.10
2023-04-23T03:13:30.792Z,64.03
2023-04-23T03:16:03.495Z,64.02
2023-04-23T03:18:36.166Z,63.94
2023-04-23T03:21:08.805Z,64.04
2023-04-23T03:23:41.493Z,64.13
2023-04-23T03:26:14.193Z,64.30
2023-04-23T03:28:48.064Z,64.11
2023-04-23T03:31:21.019Z,64.09
2023-04-23T03:33:53.914Z,64.28
2023-04-23T03:36:33.941Z,64.05
2023-04-23T03:39:07.843Z,64.39
2023-04-23T03:41:52.766Z,64.42
2023-04-23T03:44:31.010Z,64.56
2023-04-23T03:47:03.781Z,64.82
2023-04-23T03:49:40.547Z,64.72
2023-04-23T03:52:13.514Z,64.65
2023-04-23T03:54:46.191Z,64.57
2023-04-23T03:57:22.902Z,64.58
2023-04-23T04:00:35.544Z,64.98
2023-04-23T04:03:09.689Z,64.94
2023-04-23T04:05:42.515Z,64.86
2023-04-23T04:08:15.229Z,64.77
2023-04-23T04:10:47.835Z,64.90
2023-04-23T04:13:20.363Z,64.87
2023-04-23T04:15:54.461Z,64.58
2023-04-23T04:18:28.329Z,64.93
2023-04-23T04:21:03.846Z,64.73
2023-04-23T04:23:39.905Z,64.99
2023-04-23T04:28:51.727Z,65.07
2023-04-23T04:31:30.928Z,65.13
2023-04-23T04:34:10.897Z,64.91
2023-04-23T04:36:43.994Z,64.93
2023-04-23T04:39:17.582Z,64.95
2023-04-23T04:41:54.486Z,64.66
2023-04-23T04:44:28.844Z,65.08
2023-04-23T04:47:02.996Z,64.80
2023-04-23T04:49:36.215Z,65.13
2023-04-23T04:52:11.117Z,65.14
2023-04-23T04:54:44.257Z,65.63
2023-04-23T04:57:22.860Z,64.80
2023-04-23T04:59:55.557Z,65.15
2023-04-23T05:02:29.659Z,65.32
2023-04-23T05:05:02.439Z,65.52
2023-04-23T05:07:36.712Z,65.00
2023-04-23T05:10:09.690Z,65.05
2023-04-23T05:12:42.712Z,65.21
2023-04-23T05:15:15.411Z,65.23
2023-04-23T05:17:50.374Z,65.22
2023-04-23T05:20:23.268Z,65.00
2023-04-23T05:22:55.879Z,65.26
2023-04-23T05:25:28.621Z,64.78
2023-04-23T05:28:01.471Z,64.66
2023-04-23T05:30:34.107Z,64.85
2023-04-23T05:33:12.015Z,64.86
2023-04-23T05:36:25.527Z,64.70
2023-04-23T05:39:03.788Z,64.93
2023-04-23T05:41:36.826Z,65.12
2023-04-23T05:44:16.783Z,64.91
2023-04-23T05:46:49.723Z,65.34
2023-04-23T05:49:27.185Z,65.17
2023-04-23T05:52:00.790Z,65.20
2023-04-23T05:54:36.077Z,65.36
2023-04-23T05:57:14.947Z,65.65
2023-04-23T05:59:53.983Z,65.89
2023-04-23T06:02:44.507Z,65.58
2023-04-23T06:05:24.843Z,65.42
2023-04-23T06:23:42.496Z,65.35
2023-04-23T06:26:33.066Z,65.86
2023-04-23T06:29:42.984Z,65.40
2023-04-23T06:32:24.403Z,66.25
2023-04-23T06:35:01.954Z,66.25
2023-04-23T06:37:35.350Z,66.33
2023-04-23T06:40:10.030Z,66.39
2023-04-23T06:42:45.888Z,66.54
2023-04-23T06:45:38.017Z,66.50
2023-04-23T06:48:10.950Z,66.79
2023-04-23T06:50:43.629Z,66.59
2023-04-23T06:53:16.629Z,66.14
2023-04-23T06:55:51.465Z,66.33
2023-04-23T06:58:27.466Z,66.77
2023-04-23T07:01:04.300Z,66.82
2023-04-23T07:03:39.432Z,66.48
2023-04-23T07:06:12.560Z,66.63
2023-04-23T07:08:45.872Z,66.61
2023-04-23T07:11:20.112Z,66.10
2023-04-23T07:13:56.625Z,66.29
2023-04-23T07:16:33.472Z,66.08
2023-04-23T07:19:07.693Z,66.22
2023-04-23T07:21:42.614Z,65.35
2023-04-23T07:24:16.982Z,65.55
2023-04-23T07:26:51.381Z,64.99
2023-04-23T07:29:26.682Z,65.63
2023-04-23T07:32:02.284Z,65.17
2023-04-23T07:34:37.974Z,65.05
2023-04-23T07:37:10.968Z,65.20
2023-04-23T07:39:44.427Z,64.76
2023-04-23T07:42:18.630Z,64.74
2023-04-23T07:44:51.583Z,64.72
2023-04-23T07:47:24.886Z,65.14
2023-04-23T07:49:59.154Z,64.59
2023-04-23T07:52:31.902Z,64.59
2023-04-23T07:55:06.385Z,64.55
2023-04-23T07:57:40.539Z,64.59
2023-04-23T08:00:14.505Z,63.73
2023-04-23T08:02:49.786Z,64.88
2023-04-23T08:05:22.820Z,64.26
2023-04-23T08:07:55.862Z,63.87
2023-04-23T08:10:31.618Z,63.46
2023-04-23T08:13:10.796Z,62.99
2023-04-23T08:15:46.594Z,63.20
2023-04-23T08:18:23.505Z,62.84
2023-04-23T08:20:57.662Z,62.86
2023-04-23T08:23:30.668Z,62.47
2023-04-23T08:26:08.697Z,62.94
2023-04-23T08:28:43.118Z,62.03
2023-04-23T08:31:25.718Z,62.17
2023-04-23T08:34:08.423Z,62.15
2023-04-23T08:36:41.710Z,62.85
2023-04-23T08:39:25.163Z,61.97
2023-04-23T08:42:06.244Z,61.26
2023-04-23T08:44:45.831Z,60.55
2023-04-23T08:47:37.494Z,60.38
2023-04-23T08:50:11.917Z,60.77
2023-04-23T08:52:50.583Z,61.12
2023-04-23T08:55:23.861Z,61.12
2023-04-23T08:57:56.777Z,60.62
2023-04-23T09:00:33.886Z,60.70
2023-04-23T09:03:13.281Z,61.60
2023-04-23T09:05:46.774Z,61.05
2023-04-23T09:08:20.652Z,60.94
2023-04-23T09:10:55.615Z,60.40
2023-04-23T09:13:31.421Z,59.70
2023-04-23T09:16:07.636Z,60.45
2023-04-23T09:18:43.271Z,59.61
2023-04-23T09:21:22.065Z,59.58
2023-04-23T09:23:55.324Z,59.41
2023-04-23T09:26:29.301Z,60.23
2023-04-23T09:29:04.461Z,60.32
2023-04-23T09:31:39.009Z,60.77
2023-04-23T09:34:12.459Z,59.75
2023-04-23T09:36:45.357Z,59.68
2023-04-23T09:39:19.285Z,59.28
2023-04-23T09:41:59.933Z,59.55
2023-04-23T09:47:59.901Z,59.46
2023-04-23T09:50:36.900Z,58.95
2023-04-23T09:53:10.778Z,59.74
2023-04-23T09:55:45.791Z,58.59
2023-04-23T09:58:20.517Z,58.23
2023-04-23T10:00:53.280Z,58.15
2023-04-23T10:03:29.231Z,59.37
2023-04-23T10:06:02.786Z,59.60
2023-04-23T10:08:40.969Z,57.87
2023-04-23T10:13:54.551Z,59.50
2023-04-23T10:16:33.045Z,58.86
2023-04-23T10:19:18.307Z,59.23
2023-04-23T10:22:02.350Z,59.01
2023-04-23T10:24:41.984Z,58.99
2023-04-23T10:27:26.913Z,57.99
2023-04-23T10:30:10.495Z,57.49
2023-04-23T10:32:46.121Z,58.08
2023-04-23T10:35:22.286Z,57.62
2023-04-23T10:37:55.260Z,56.63
2023-04-23T10:40:31.677Z,57.05
2023-04-23T10:43:04.346Z,57.32
2023-04-23T10:49:45.140Z,57.63
2023-04-23T10:52:24.381Z,56.55
2023-04-23T10:55:10.921Z,56.25
2023-04-23T10:58:00.881Z,56.35
2023-04-23T11:00:45.914Z,54.80
2023-04-23T11:03:42.530Z,55.86
2023-04-23T11:06:20.939Z,54.45
2023-04-23T11:08:56.853Z,54.97
2023-04-23T11:11:40.657Z,54.27
2023-04-23T11:14:15.435Z,55.09
2023-04-23T11:16:49.687Z,54.85
2023-04-23T11:19:23.687Z,54.73
2023-04-23T11:22:00.218Z,54.91
2023-04-23T11:24:37.066Z,54.53
2023-04-23T11:27:12.233Z,53.80
2023-04-23T11:29:45.671Z,53.51
2023-04-23T11:32:18.872Z,53.73
2023-04-23T11:34:53.302Z,54.22
2023-04-23T11:37:26.659Z,53.10
2023-04-23T11:40:08.101Z,53.86
2023-04-23T11:42:46.666Z,52.25
2023-04-23T11:45:20.760Z,52.87
2023-04-23T11:47:57.137Z,52.27
2023-04-23T11:50:33.326Z,52.62
2023-04-23T11:53:07.234Z,53.08
2023-04-23T11:55:44.070Z,52.50
2023-04-23T11:58:19.146Z,52.31
2023-04-23T12:00:57.973Z,52.40
2023-04-23T12:03:30.896Z,52.30
2023-04-23T12:06:04.025Z,52.41
2023-04-23T12:08:37.630Z,53.05
2023-04-23T12:11:14.016Z,52.00
2023-04-23T12:13:46.712Z,53.95
2023-04-23T12:16:19.371Z,52.88
2023-04-23T12:18:54.681Z,53.30
2023-04-23T12:21:29.852Z,51.95
2023-04-23T12:24:04.824Z,50.70
2023-04-23T12:26:39.789Z,51.80
2023-04-23T12:29:14.209Z,52.19
2023-04-23T12:31:48.756Z,53.61
2023-04-23T12:34:23.907Z,53.13
2023-04-23T12:36:57.369Z,54.74
2023-04-23T12:39:34.150Z,54.87
2023-04-23T12:42:11.037Z,55.62
2023-04-23T12:44:43.718Z,57.12
2023-04-23T12:47:17.814Z,57.12
2023-04-23T12:49:53.308Z,57.44
2023-04-23T12:52:27.781Z,57.65
2023-04-23T12:55:01.390Z,57.60
2023-04-23T12:57:37.921Z,57.75
2023-04-23T13:00:12.276Z,57.69
2023-04-23T13:02:44.946Z,57.54
2023-04-23T13:05:18.043Z,57.74
2023-04-23T13:07:51.379Z,57.14
2023-04-23T13:10:24.006Z,57.82
2023-04-23T13:12:59.226Z,57.13
2023-04-23T13:15:32.034Z,58.14
2023-04-23T13:18:04.819Z,58.10
2023-04-23T13:20:37.584Z,58.36
2023-04-23T13:23:11.458Z,57.58
2023-04-23T13:25:44.229Z,57.57
2023-04-23T13:28:18.514Z,58.12
2023-04-23T13:30:52.892Z,57.45
2023-04-23T13:33:25.523Z,58.16
2023-04-23T13:35:58.681Z,57.05
2023-04-23T13:38:31.370Z,57.65
2023-04-23T13:41:05.776Z,57.10
2023-04-23T13:43:40.498Z,57.39
2023-04-23T13:46:14.184Z,55.88
2023-04-23T13:48:46.966Z,56.13
2023-04-23T13:51:34.782Z,54.60
2023-04-23T13:54:08.553Z,53.79
2023-04-23T13:56:41.411Z,54.11
2023-04-23T13:59:19.913Z,53.42
2023-04-23T14:01:53.168Z,54.23
2023-04-23T14:04:27.036Z,54.73
2023-04-23T14:06:59.688Z,54.39
2023-04-23T14:09:32.329Z,53.78
2023-04-23T14:12:05.071Z,54.16
2023-04-23T14:14:39.253Z,56.10
2023-04-23T14:17:12.040Z,54.96
2023-04-23T14:19:44.886Z,55.33
2023-04-23T14:22:19.605Z,54.93
2023-04-23T14:24:59.722Z,55.05
2023-04-23T14:27:42.780Z,55.09
2023-04-23T14:30:18.004Z,55.10
2023-04-23T14:33:00.276Z,55.62
2023-04-23T14:35:43.134Z,55.85
2023-04-23T14:38:20.494Z,55.76
2023-04-23T14:40:53.593Z,55.99
2023-04-23T14:43:26.692Z,56.21
2023-04-23T14:46:03.603Z,56.93
2023-04-23T14:48:36.807Z,56.35
2023-04-23T14:51:30.073Z,56.76
2023-04-23T14:54:10.043Z,56.60
2023-04-23T14:56:43.213Z,56.48
2023-04-23T14:59:16.639Z,56.90
2023-04-23T15:01:50.997Z,57.55
2023-04-23T15:04:24.436Z,56.91
2023-04-23T15:06:57.681Z,57.29
2023-04-23T15:09:33.037Z,57.51
2023-04-23T15:12:07.638Z,57.27
2023-04-23T15:14:46.522Z,57.80
2023-04-23T15:17:20.798Z,57.36
2023-04-23T15:19:54.445Z,57.66
2023-04-23T15:22:29.726Z,59.74
2023-04-23T15:25:02.550Z,57.09
2023-04-23T15:27:35.145Z,58.99
2023-04-23T15:30:10.375Z,57.89
2023-04-23T15:32:44.342Z,58.17
2023-04-23T15:35:16.993Z,58.80
2023-04-23T15:37:49.748Z,57.53
2023-04-23T15:40:22.629Z,58.15
2023-04-23T15:42:55.322Z,58.26
2023-04-23T15:45:27.962Z,58.64
2023-04-23T15:48:02.010Z,58.56
2023-04-23T15:50:34.894Z,58.12
2023-04-23T15:53:07.624Z,59.00
2023-04-23T15:55:40.770Z,58.16
2023-04-23T15:58:17.825Z,58.10
2023-04-23T16:00:55.328Z,57.79
2023-04-23T16:03:29.463Z,58.20
2023-04-23T16:06:02.194Z,58.58
2023-04-23T16:08:34.830Z,58.62
2023-04-23T16:11:10.274Z,58.89
2023-04-23T16:13:42.927Z,59.01
2023-04-23T16:16:15.617Z,59.39
2023-04-23T16:18:49.603Z,58.94
2023-04-23T16:21:22.092Z,59.22
2023-04-23T16:23:54.712Z,59.45
2023-04-23T16:26:28.491Z,59.48
2023-04-23T16:31:36.812Z,59.65
2023-04-23T16:34:10.823Z,59.31
2023-04-23T16:36:43.435Z,59.69
2023-04-23T16:39:16.224Z,59.47
2023-04-23T16:41:50.174Z,60.00
2023-04-23T16:44:22.801Z,59.94
2023-04-23T16:46:56.688Z,59.89
2023-04-23T16:49:30.892Z,60.11
2023-04-23T16:52:03.858Z,60.32
2023-04-23T16:54:37.354Z,59.93
2023-04-23T16:57:10.005Z,60.15
2023-04-23T16:59:42.956Z,60.22
2023-04-23T17:02:16.006Z,59.65
2023-04-23T17:04:50.295Z,60.75
2023-04-23T17:07:23.255Z,60.44
2023-04-23T17:09:58.541Z,60.00
2023-04-23T17:12:31.412Z,60.27
2023-04-23T17:15:07.169Z,60.33
2023-04-23T17:17:42.988Z,60.12
2023-04-23T17:20:21.014Z,60.49
2023-04-23T17:23:01.285Z,60.53
2023-04-23T17:25:35.582Z,60.19
2023-04-23T17:28:08.530Z,60.28
2023-04-23T17:33:50.321Z,60.46
2023-04-23T17:36:33.707Z,60.68
2023-04-23T17:39:34.157Z,60.62
2023-04-23T17:42:40.916Z,60.31
2023-04-23T17:45:20.490Z,60.23
2023-04-23T17:48:01.973Z,59.91
2023-04-23T17:50:35.136Z,60.14
2023-04-23T17:53:11.841Z,60.41
2023-04-23T17:55:44.618Z,60.13
2023-04-23T17:58:19.405Z,60.52
2023-04-23T18:00:52.980Z,61.45
2023-04-23T18:03:27.249Z,60.83
2023-04-23T18:06:00.567Z,60.78
2023-04-23T18:08:34.492Z,60.61
2023-04-23T18:11:07.929Z,60.60
2023-04-23T18:13:40.761Z,60.69
2023-04-23T18:16:13.424Z,60.96
2023-04-23T18:18:46.151Z,61.04
2023-04-23T18:21:18.953Z,61.15
2023-04-23T18:23:52.911Z,61.24
2023-04-23T18:26:26.990Z,61.07
2023-04-23T18:29:00.117Z,61.67
2023-04-23T18:31:32.970Z,60.86
2023-04-23T18:34:10.291Z,61.37
2023-04-23T18:36:43.997Z,60.78
2023-04-23T18:39:19.403Z,61.43
2023-04-23T18:41:52.382Z,61.13
2023-04-23T18:44:26.567Z,61.26
2023-04-23T18:46:59.621Z,61.27
2023-04-23T18:49:39.808Z,60.82
2023-04-23T18:52:13.174Z,61.01
2023-04-23T18:54:47.230Z,61.18
2023-04-23T18:57:20.005Z,61.10
2023-04-23T18:59:52.852Z,61.05
2023-04-23T19:02:35.220Z,61.12
2023-04-23T19:05:08.896Z,61.79
2023-04-23T19:07:42.604Z,61.58
2023-04-23T19:10:17.411Z,62.32
2023-04-23T19:12:50.846Z,61.93
2023-04-23T19:15:23.536Z,62.57
2023-04-23T19:17:56.299Z,62.57
2023-04-23T19:20:31.012Z,62.62
2023-04-23T19:23:05.018Z,62.54
2023-04-23T19:25:39.362Z,62.55
2023-04-23T19:28:11.922Z,62.21
2023-04-23T19:30:44.505Z,62.24
2023-04-23T19:33:17.053Z,62.73
2023-04-23T19:35:49.702Z,62.09
2023-04-23T19:38:22.298Z,62.44
2023-04-23T19:40:56.964Z,62.77
2023-04-23T19:43:29.962Z,62.57
2023-04-23T19:46:02.629Z,62.53
2023-04-23T19:48:35.269Z,62.07
2023-04-23T19:51:08.330Z,62.23
2023-04-23T19:53:41.296Z,62.29
2023-04-23T19:56:15.297Z,61.93
2023-04-23T19:58:48.720Z,61.94
2023-04-23T20:01:21.570Z,62.15
2023-04-23T20:03:56.227Z,62.47
2023-04-23T20:06:29.197Z,62.34
2023-04-23T20:09:08.004Z,61.79
2023-04-23T20:11:42.067Z,61.88
2023-04-23T20:14:15.374Z,61.74
2023-04-23T20:16:48.507Z,62.12
2023-04-23T20:19:21.585Z,62.14
2023-04-23T20:21:54.511Z,61.57
2023-04-23T20:24:27.083Z,61.86
2023-04-23T20:27:01.574Z,61.65
2023-04-23T20:29:34.304Z,61.91
2023-04-23T20:32:07.309Z,62.29
2023-04-23T20:34:39.978Z,61.70
2023-04-23T20:37:13.709Z,61.80
2023-04-23T20:39:46.701Z,62.01
2023-04-23T20:42:22.328Z,61.76
2023-04-23T20:44:54.892Z,61.86
2023-04-23T20:47:27.915Z,61.95
2023-04-23T20:50:00.670Z,61.84
2023-04-23T20:52:34.094Z,61.85
2023-04-23T20:55:15.588Z,62.64
2023-04-23T20:57:49.625Z,62.58
2023-04-23T21:00:22.618Z,62.55
2023-04-23T21:02:55.425Z,63.09
2023-04-23T21:05:28.141Z,62.84
2023-04-23T21:08:03.961Z,62.99
2023-04-23T21:10:41.423Z,63.12
2023-04-23T21:13:16.291Z,63.00
2023-04-23T21:15:49.054Z,63.16
2023-04-23T21:18:26.514Z,63.11
2023-04-23T21:20:59.443Z,63.01
2023-04-23T21:33:56.734Z,63.35
2023-04-23T21:36:33.851Z,63.28
2023-04-23T21:39:07.989Z,63.17
2023-04-23T21:41:41.138Z,63.39
2023-04-23T21:44:16.782Z,63.20
2023-04-23T21:46:49.497Z,63.20
2023-04-23T21:49:23.576Z,63.09
2023-04-23T21:54:44.780Z,63.19
2023-04-23T21:57:17.986Z,63.18
2023-04-23T21:59:53.570Z,62.85
2023-04-23T22:02:31.799Z,63.35
2023-04-23T22:05:28.987Z,63.56
2023-04-23T22:08:06.999Z,63.47
2023-04-23T22:10:43.402Z,63.24
2023-04-23T22:13:18.840Z,63.29
2023-04-23T22:15:53.012Z,63.51
2023-04-23T22:18:28.898Z,63.62
2023-04-23T22:21:08.697Z,63.75
2023-04-23T22:23:45.512Z,63.99
2023-04-23T22:26:27.609Z,63.62
2023-04-23T22:29:00.510Z,63.75
2023-04-23T22:31:41.000Z,63.85
2023-04-23T22:34:15.210Z,63.56
2023-04-23T22:36:54.221Z,63.76
2023-04-23T22:39:38.552Z,63.42
2023-04-23T22:42:16.047Z,63.76
2023-04-23T22:44:48.741Z,63.90
2023-04-23T22:47:21.780Z,63.93
2023-04-23T22:49:54.459Z,63.94
2023-04-23T22:52:28.478Z,63.65
2023-04-23T22:55:01.016Z,63.68
2023-04-23T22:57:33.636Z,64.22
2023-04-23T23:00:07.643Z,63.79
2023-04-23T23:02:40.411Z,64.20
2023-04-23T23:05:13.373Z,63.74
2023-04-23T23:07:47.267Z,63.71
2023-04-23T23:10:22.888Z,63.59
2023-04-23T23:12:55.886Z,63.96
2023-04-23T23:15:28.475Z,63.87
2023-04-23T23:18:01.142Z,63.90
2023-04-23T23:20:35.229Z,63.98
2023-04-23T23:23:09.090Z,63.78
2023-04-23T23:25:41.612Z,63.47
2023-04-23T23:28:14.205Z,63.57
2023-04-23T23:30:47.938Z,63.73
2023-04-23T23:33:20.815Z,63.99
2023-04-23T23:35:53.488Z,64.30
2023-04-23T23:38:27.560Z,64.02
2023-04-23T23:41:04.409Z,64.12
2023-04-23T23:43:36.979Z,64.18
2023-04-23T23:46:10.535Z,64.18
2023-04-23T23:48:43.205Z,64.04
2023-04-23T23:51:18.114Z,64.37
2023-04-23T23:53:54.430Z,64.33
2023-04-23T23:56:26.942Z,64.47
2023-04-23T23:58:59.489Z,64.30
